Time;durP1;ratioP1;P1;durP2;ratioP2;P2;SDS_P1;SDS_P2;PMS_P1;PMS_P2;Temp;Humidity;BMP_temperature;BMP_pressure;BME280_temperature;BME280_humidity;BME280_pressure;Samples;Min_cycle;Max_cycle;Signal;HPM_P1;HPM_P2
2022/03/28 00:01:13;;;;;;;49.00;21.88;;;;;;;4.52;nan;101741.53;5022748;28;20034;-68
2022/03/28 00:03:39;;;;;;;51.83;21.13;;;;;;;4.55;nan;101750.84;5029043;28;20044;-68
2022/03/28 00:06:04;;;;;;;47.78;20.20;;;;;;;4.33;nan;101706.00;5024964;28;20060;-70
2022/03/28 00:08:30;;;;;;;46.50;20.15;;;;;;;4.60;nan;101744.22;5042025;28;20037;-69
2022/03/28 00:10:56;;;;;;;61.33;19.83;;;;;;;4.51;nan;101737.28;5033481;28;20032;-68
2022/03/28 00:13:22;;;;;;;42.42;17.38;;;;;;;4.39;nan;101728.88;5020006;28;20108;-67
2022/03/28 00:15:47;;;;;;;41.47;16.40;;;;;;;4.12;nan;101697.69;5034730;28;20093;-67
2022/03/28 00:18:12;;;;;;;40.78;17.42;;;;;;;4.32;nan;101745.31;5009212;28;20164;-67
2022/03/28 00:20:39;;;;;;;38.03;13.93;;;;;;;4.24;nan;101739.03;5028337;28;20037;-69
2022/03/28 00:23:05;;;;;;;31.48;11.65;;;;;;;4.16;nan;101743.34;5027217;28;20069;-69
2022/03/28 00:25:31;;;;;;;32.80;11.38;;;;;;;4.10;nan;101741.38;5025368;28;20396;-69
2022/03/28 00:27:56;;;;;;;30.25;10.45;;;;;;;3.93;nan;101741.22;5019459;28;20033;-69
2022/03/28 00:30:22;;;;;;;29.90;10.45;;;;;;;3.85;nan;101738.50;5019948;28;20044;-68
2022/03/28 00:32:47;;;;;;;27.13;9.13;;;;;;;3.69;nan;101730.50;5027841;28;20541;-69
2022/03/28 00:35:12;;;;;;;21.95;8.52;;;;;;;3.69;nan;101749.59;5011034;28;20115;-69
2022/03/28 00:37:41;;;;;;;26.50;10.15;;;;;;;3.59;nan;101751.41;5028674;28;20036;-69
2022/03/28 00:40:08;;;;;;;27.05;10.55;;;;;;;3.36;nan;101738.78;4996407;28;20048;-69
2022/03/28 00:42:33;;;;;;;28.95;10.80;;;;;;;3.39;nan;101753.28;5026540;28;20041;-67
2022/03/28 00:44:59;;;;;;;28.08;9.52;;;;;;;3.29;nan;101740.31;5028430;28;20077;-68
2022/03/28 00:47:24;;;;;;;24.63;9.60;;;;;;;3.19;nan;101724.75;5011175;28;20040;-69
2022/03/28 00:49:50;;;;;;;28.35;10.20;;;;;;;3.11;nan;101729.88;5028927;28;20680;-68
2022/03/28 00:52:15;;;;;;;28.55;9.80;;;;;;;2.90;nan;101716.25;5015905;28;20542;-68
2022/03/28 00:54:40;;;;;;;36.22;9.55;;;;;;;2.95;nan;101734.84;5024904;28;20481;-68
2022/03/28 00:57:06;;;;;;;29.58;10.23;;;;;;;2.92;nan;101724.69;5024333;28;20458;-68
2022/03/28 00:59:32;;;;;;;32.60;9.85;;;;;;;2.84;nan;101707.22;5029397;28;20041;-68
2022/03/28 01:01:59;;;;;;;27.85;9.75;;;;;;;2.83;nan;101717.78;5003354;28;20056;-68
2022/03/28 01:04:24;;;;;;;29.27;9.73;;;;;;;2.64;nan;101709.03;5025369;28;20040;-68
2022/03/28 01:06:51;;;;;;;27.60;9.55;;;;;;;2.61;nan;101700.69;5021757;28;20042;-69
2022/03/28 01:09:18;;;;;;;32.30;10.93;;;;;;;2.60;nan;101699.06;5021424;28;20038;-68
2022/03/28 01:11:45;;;;;;;25.95;9.57;;;;;;;2.65;nan;101697.66;5028466;28;20083;-68
2022/03/28 01:14:10;;;;;;;26.95;9.30;;;;;;;2.76;nan;101709.69;5020581;28;20056;-68
2022/03/28 01:19:20;;;;;;;31.33;10.10;;;;;;;2.80;nan;101710.22;5026660;28;20095;-69
2022/03/28 01:21:45;;;;;;;37.85;9.80;;;;;;;2.66;nan;101688.09;5028586;28;20038;-70
2022/03/28 01:24:11;;;;;;;30.15;9.65;;;;;;;2.59;nan;101690.44;5029105;28;20038;-69
2022/03/28 01:26:37;;;;;;;25.73;9.50;;;;;;;2.58;nan;101707.00;5026474;28;20463;-68
2022/03/28 01:29:03;;;;;;;26.85;9.48;;;;;;;2.19;nan;101680.25;5028529;28;20484;-67
2022/03/28 01:31:29;;;;;;;25.38;9.73;;;;;;;2.16;nan;101696.94;5034786;28;20029;-68
2022/03/28 01:33:54;;;;;;;25.05;10.63;;;;;;;2.06;nan;101696.94;4998372;28;20061;-69
2022/03/28 01:36:24;;;;;;;26.30;9.45;;;;;;;1.90;nan;101681.06;5005311;28;20041;-68
2022/03/28 01:38:49;;;;;;;22.45;9.73;;;;;;;1.61;nan;101692.25;5025194;28;20615;-68
2022/03/28 01:41:15;;;;;;;21.27;9.48;;;;;;;1.47;nan;101693.44;5003996;28;20049;-68
2022/03/28 01:43:40;;;;;;;23.98;9.57;;;;;;;1.46;nan;101699.59;5015742;28;20033;-68
2022/03/28 01:46:05;;;;;;;26.95;10.00;;;;;;;1.38;nan;101696.84;5034856;28;20464;-67
2022/03/28 01:48:32;;;;;;;23.15;10.20;;;;;;;1.31;nan;101693.13;5027486;28;20029;-67
2022/03/28 01:50:57;;;;;;;24.15;9.02;;;;;;;1.26;nan;101697.91;5034958;28;20091;-67
2022/03/28 01:53:23;;;;;;;22.75;9.52;;;;;;;1.19;nan;101689.81;5032094;28;20116;-67
2022/03/28 01:55:48;;;;;;;23.80;10.57;;;;;;;1.25;nan;101711.84;5030711;28;20495;-69
2022/03/28 01:58:14;;;;;;;28.05;10.15;;;;;;;1.16;nan;101697.88;5009970;28;20072;-68
2022/03/28 02:00:40;;;;;;;22.20;8.80;;;;;;;1.26;nan;101705.69;5034118;28;20041;-68
2022/03/28 02:03:05;;;;;;;29.40;9.60;;;;;;;1.31;nan;101711.28;5018347;28;20471;-68
2022/03/28 02:05:31;;;;;;;24.80;9.43;;;;;;;1.21;nan;101700.06;5035615;28;20032;-68
2022/03/28 02:07:56;;;;;;;26.17;9.70;;;;;;;1.23;nan;101698.97;5032767;28;20034;-68
2022/03/28 02:10:22;;;;;;;23.23;9.27;;;;;;;1.30;nan;101704.47;5033678;28;20090;-67
2022/03/28 02:12:48;;;;;;;25.88;9.70;;;;;;;1.31;nan;101708.69;5019338;28;20033;-68
2022/03/28 02:15:14;;;;;;;21.30;9.38;;;;;;;1.19;nan;101691.59;5034811;28;20033;-68
2022/03/28 02:17:40;;;;;;;22.80;9.32;;;;;;;1.25;nan;101698.84;5030731;28;20065;-68
2022/03/28 02:20:08;;;;;;;22.00;8.80;;;;;;;1.04;nan;101678.16;5033462;28;20112;-68
2022/03/28 02:22:35;;;;;;;29.02;10.20;;;;;;;1.17;nan;101698.69;5034694;28;20055;-67
2022/03/28 02:25:00;;;;;;;25.85;9.00;;;;;;;1.01;nan;101673.25;5033866;28;20038;-68
2022/03/28 02:27:26;;;;;;;22.40;8.63;;;;;;;1.13;nan;101697.31;5031154;28;20029;-68
2022/03/28 02:29:52;;;;;;;23.83;9.40;;;;;;;0.84;nan;101652.16;5029298;28;20050;-67
2022/03/28 02:32:17;;;;;;;23.05;9.18;;;;;;;1.02;nan;101680.06;5034351;28;20076;-67
2022/03/28 02:34:43;;;;;;;28.48;9.32;;;;;;;0.98;nan;101679.50;5028965;28;20394;-69
2022/03/28 02:37:09;;;;;;;22.77;9.40;;;;;;;1.07;nan;101693.44;5031768;28;20065;-69
2022/03/28 02:39:34;;;;;;;21.88;8.60;;;;;;;1.14;nan;101694.56;5029218;28;20460;-69
2022/03/28 02:42:00;;;;;;;23.35;9.40;;;;;;;0.99;nan;101675.97;5024155;28;20112;-69
2022/03/28 02:44:25;;;;;;;28.50;8.98;;;;;;;0.91;nan;101685.31;5025137;28;20480;-69
2022/03/28 02:46:51;;;;;;;27.70;9.75;;;;;;;0.78;nan;101678.59;5031931;28;20037;-68
2022/03/28 02:49:19;;;;;;;21.02;9.52;;;;;;;0.55;nan;101669.31;5028754;28;20091;-69
2022/03/28 02:51:45;;;;;;;30.73;11.27;;;;;;;0.73;nan;101695.50;5024502;28;20029;-68
2022/03/28 02:54:10;;;;;;;30.38;12.00;;;;;;;0.64;nan;101676.31;5027288;28;20113;-69
2022/03/28 02:56:36;;;;;;;31.88;13.73;;;;;;;0.77;nan;101695.09;5031754;28;20068;-67
2022/03/28 02:59:02;;;;;;;44.15;15.55;;;;;;;0.80;nan;101692.25;5027012;28;20033;-69
2022/03/28 03:01:27;;;;;;;37.08;15.00;;;;;;;0.78;nan;101691.56;5018354;28;20029;-68
2022/03/28 03:03:53;;;;;;;32.63;13.90;;;;;;;0.70;nan;101672.41;5031527;28;20056;-68
2022/03/28 03:06:18;;;;;;;38.13;12.77;;;;;;;0.79;nan;101687.19;5027810;28;20038;-68
2022/03/28 03:08:43;;;;;;;29.30;12.88;;;;;;;0.74;nan;101689.34;5031224;28;20111;-67
2022/03/28 03:11:09;;;;;;;32.03;14.30;;;;;;;0.69;nan;101683.72;5031040;28;20075;-67
2022/03/28 03:13:36;;;;;;;32.95;13.80;;;;;;;0.65;nan;101678.00;5013275;28;20068;-68
2022/03/28 03:16:02;;;;;;;40.35;14.40;;;;;;;0.61;nan;101681.78;5015864;28;20066;-68
2022/03/28 03:18:27;;;;;;;36.70;14.38;;;;;;;0.55;nan;101684.88;5020302;28;20112;-68
2022/03/28 03:20:53;;;;;;;34.40;14.45;;;;;;;0.39;nan;101665.41;5017616;28;20033;-68
2022/03/28 03:23:18;;;;;;;37.95;15.05;;;;;;;0.37;nan;101669.91;5023063;28;20527;-68
2022/03/28 03:25:44;;;;;;;35.08;16.15;;;;;;;0.36;nan;101672.59;5020357;28;20049;-67
2022/03/28 03:28:09;;;;;;;41.78;15.80;;;;;;;0.44;nan;101687.53;5023424;28;20045;-68
2022/03/28 03:30:35;;;;;;;41.88;16.35;;;;;;;0.32;nan;101677.25;5028627;28;20049;-68
2022/03/28 03:33:00;;;;;;;36.20;15.32;;;;;;;0.44;nan;101695.31;5028583;28;20426;-68
2022/03/28 03:35:26;;;;;;;38.25;16.02;;;;;;;0.51;nan;101707.63;5036143;28;20664;-67
2022/03/28 03:37:52;;;;;;;34.70;16.52;;;;;;;0.43;nan;101704.84;5040866;28;20083;-68
2022/03/28 03:40:17;;;;;;;30.55;15.60;;;;;;;0.56;nan;101717.63;5020913;28;20049;-68
2022/03/28 03:42:42;;;;;;;39.60;17.15;;;;;;;0.47;nan;101721.78;5020723;28;20038;-66
2022/03/28 03:45:09;;;;;;;37.95;16.75;;;;;;;0.45;nan;101718.50;5017653;28;20044;-67
2022/03/28 03:47:35;;;;;;;36.80;16.65;;;;;;;0.40;nan;101707.69;5032297;28;20438;-68
2022/03/28 03:50:00;;;;;;;45.72;17.30;;;;;;;0.35;nan;101699.47;5011971;28;20102;-68
2022/03/28 03:52:26;;;;;;;40.08;18.52;;;;;;;0.21;nan;101685.06;4991430;28;20408;-68
2022/03/28 03:54:51;;;;;;;36.13;18.02;;;;;;;0.25;nan;101694.22;5021586;28;20065;-68
2022/03/28 03:57:17;;;;;;;42.58;18.58;;;;;;;0.22;nan;101702.25;5029757;28;20082;-67
2022/03/28 03:59:42;;;;;;;49.53;18.98;;;;;;;0.25;nan;101722.72;5019920;28;20037;-68
2022/03/28 04:02:08;;;;;;;41.40;19.48;;;;;;;0.24;nan;101713.31;5022432;28;20076;-68
2022/03/28 04:04:34;;;;;;;39.67;17.13;;;;;;;0.17;nan;101704.41;5006840;28;20064;-68
2022/03/28 04:06:59;;;;;;;35.40;15.90;;;;;;;0.17;nan;101699.22;5009502;28;20038;-68
2022/03/28 04:09:25;;;;;;;34.38;15.30;;;;;;;0.17;nan;101699.22;5008966;28;20041;-68
2022/03/28 04:11:50;;;;;;;31.27;14.20;;;;;;;0.22;nan;101715.22;5008021;28;20652;-70
2022/03/28 04:14:16;;;;;;;34.92;15.13;;;;;;;0.14;nan;101720.19;5008352;28;20143;-70
2022/03/28 04:16:42;;;;;;;33.30;15.18;;;;;;;0.02;nan;101706.44;4985482;28;20089;-71
2022/03/28 04:19:08;;;;;;;36.85;15.07;;;;;;;-0.09;nan;101686.59;4995106;28;20038;-70
2022/03/28 04:21:33;;;;;;;37.53;15.35;;;;;;;-0.02;nan;101710.25;4995635;28;20485;-69
2022/03/28 04:23:58;;;;;;;37.75;15.82;;;;;;;-0.03;nan;101703.41;4997707;28;20049;-69
2022/03/28 04:26:24;;;;;;;37.08;16.20;;;;;;;-0.08;nan;101695.19;5000606;28;20061;-69
2022/03/28 04:28:49;;;;;;;37.92;16.27;;;;;;;0.01;nan;101704.00;4999026;28;20461;-70
2022/03/28 04:31:16;;;;;;;37.22;15.32;;;;;;;-0.02;nan;101699.88;5009094;28;20464;-70
2022/03/28 04:33:41;;;;;;;39.17;16.90;;;;;;;-0.02;nan;101711.06;4986035;28;20038;-69
2022/03/28 04:36:07;;;;;;;46.83;16.13;;;;;;;-0.25;nan;101671.47;4985220;28;20052;-71
2022/03/28 04:38:33;;;;;;;34.92;16.33;;;;;;;-0.06;nan;101703.66;5003422;28;20110;-69
2022/03/28 04:40:58;;;;;;;37.22;16.08;;;;;;;-0.11;nan;101711.78;4982984;28;20049;-70
2022/03/28 04:43:23;;;;;;;38.80;16.15;;;;;;;-0.05;nan;101729.44;5008560;28;20060;-72
2022/03/28 04:45:49;;;;;;;41.40;16.95;;;;;;;-0.05;nan;101724.25;5009066;28;20038;-69
2022/03/28 04:48:14;;;;;;;39.55;17.58;;;;;;;-0.14;nan;101699.09;5000414;28;20045;-71
2022/03/28 04:50:40;;;;;;;51.40;18.98;;;;;;;-0.15;nan;101714.75;5009639;28;20040;-69
2022/03/28 04:53:05;;;;;;;45.15;18.33;;;;;;;-0.18;nan;101709.81;5000365;28;20022;-71
2022/03/28 04:55:32;;;;;;;56.47;18.42;;;;;;;-0.18;nan;101715.00;5002480;28;20034;-69
2022/03/28 04:57:58;;;;;;;50.00;19.85;;;;;;;-0.34;nan;101700.66;5003288;28;20052;-71
2022/03/28 05:00:24;;;;;;;52.38;21.40;;;;;;;-0.24;nan;101706.78;4986750;28;20124;-72
2022/03/28 05:02:54;;;;;;;56.70;22.38;;;;;;;-0.20;nan;101712.53;5012005;28;20140;-69
2022/03/28 05:05:19;;;;;;;59.45;22.83;;;;;;;-0.22;nan;101725.59;5026384;28;20040;-69
2022/03/28 05:07:45;;;;;;;60.28;23.50;;;;;;;-0.23;nan;101718.78;5012110;28;20578;-69
2022/03/28 05:10:11;;;;;;;57.08;21.92;;;;;;;-0.15;nan;101736.28;5007509;28;20475;-69
2022/03/28 05:12:41;;;;;;;51.75;19.88;;;;;;;-0.11;nan;101736.88;5006812;28;20037;-69
2022/03/28 05:15:07;;;;;;;58.95;21.25;;;;;;;-0.10;nan;101734.13;5016453;28;20074;-69
2022/03/28 05:17:32;;;;;;;52.13;20.10;;;;;;;-0.61;nan;101656.28;5015032;28;20081;-70
2022/03/28 05:19:59;;;;;;;53.95;21.50;;;;;;;-0.03;nan;101758.59;5013660;28;20504;-70
2022/03/28 05:22:26;;;;;;;58.10;23.00;;;;;;;-0.08;nan;101754.75;5014485;28;20040;-69
2022/03/28 05:24:53;;;;;;;59.25;22.92;;;;;;;-0.22;nan;101735.13;5010137;28;20037;-72
2022/03/28 05:27:19;;;;;;;53.65;24.15;;;;;;;-0.18;nan;101733.13;5014494;28;20111;-68
2022/03/28 05:29:48;;;;;;;58.60;24.00;;;;;;;-0.28;nan;101725.25;5029044;28;20037;-71
2022/03/28 05:32:14;;;;;;;56.60;25.27;;;;;;;-0.16;nan;101734.66;5030180;28;20087;-70
2022/03/28 05:34:39;;;;;;;59.55;25.98;;;;;;;-0.14;nan;101731.94;5029977;28;20053;-68
2022/03/28 05:37:10;;;;;;;61.83;25.95;;;;;;;-0.51;nan;101652.84;5031855;28;20037;-69
2022/03/28 05:39:36;;;;;;;58.55;25.25;;;;;;;-0.05;nan;101731.19;5005496;28;20559;-71
2022/03/28 05:42:03;;;;;;;67.57;26.88;;;;;;;0.23;nan;101739.34;5011168;28;20095;-69
2022/03/28 05:44:28;;;;;;;70.28;29.92;;;;;;;0.32;nan;101730.84;5019276;28;20033;-69
2022/03/28 05:46:54;;;;;;;69.63;26.45;;;;;;;0.45;nan;101728.03;5029848;28;20040;-70
2022/03/28 05:49:22;;;;;;;67.35;25.77;;;;;;;0.61;nan;101731.03;5008988;28;20064;-69
2022/03/28 05:51:48;;;;;;;59.90;25.05;;;;;;;0.33;nan;101665.09;5029264;28;20029;-68
2022/03/28 05:54:13;;;;;;;66.15;25.30;;;;;;;0.82;nan;101721.47;5021904;28;20037;-70
2022/03/28 05:56:39;;;;;;;61.35;25.27;;;;;;;1.01;nan;101714.75;5023378;28;20127;-77
2022/03/28 05:59:07;;;;;;;67.55;25.95;;;;;;;1.17;nan;101715.06;5021092;28;20042;-75
2022/03/28 06:01:33;;;;;;;72.18;27.05;;;;;;;1.08;nan;101665.72;5025561;28;20045;-75
2022/03/28 06:03:59;;;;;;;60.97;24.92;;;;;;;1.52;nan;101707.81;5025318;28;20053;-74
2022/03/28 06:06:24;;;;;;;63.35;24.52;;;;;;;1.82;nan;101720.72;5026357;28;20510;-74
2022/03/28 06:08:49;;;;;;;71.53;24.75;;;;;;;1.90;nan;101707.88;5023282;28;20545;-75
2022/03/28 06:11:17;;;;;;;65.68;24.52;;;;;;;2.07;nan;101708.16;5023118;28;20034;-73
2022/03/28 06:13:42;;;;;;;65.13;23.35;;;;;;;2.17;nan;101710.75;5028615;28;20025;-75
2022/03/28 06:16:08;;;;;;;58.67;22.60;;;;;;;2.45;nan;101728.09;5031990;28;20040;-74
2022/03/28 06:18:34;;;;;;;46.17;22.13;;;;;;;2.52;nan;101692.78;5025865;28;20150;-74
2022/03/28 06:21:00;;;;;;;48.33;21.95;;;;;;;2.77;nan;101701.75;5027967;28;20038;-69
2022/03/28 06:23:25;;;;;;;51.05;20.75;;;;;;;2.84;nan;101685.59;5032848;28;20033;-70
2022/03/28 06:25:51;;;;;;;42.95;19.08;;;;;;;3.29;nan;101718.69;5045156;28;20128;-71
2022/03/28 06:28:16;;;;;;;60.42;21.42;;;;;;;3.48;nan;101712.56;5029201;28;20037;-72
2022/03/28 06:30:42;;;;;;;50.70;21.90;;;;;;;3.54;nan;101704.97;5027461;28;20103;-71
2022/03/28 06:33:08;;;;;;;54.15;23.25;;;;;;;3.76;nan;101726.34;5031669;28;20034;-69
2022/03/28 06:35:33;;;;;;;55.80;22.80;;;;;;;3.86;nan;101716.69;5029060;28;20450;-70
2022/03/28 06:37:58;;;;;;;67.43;23.55;;;;;;;4.08;nan;101714.63;5027695;28;20045;-70
2022/03/28 06:40:24;;;;;;;50.72;22.48;;;;;;;4.16;nan;101718.09;5031132;28;20061;-71
2022/03/28 06:42:50;;;;;;;61.30;24.55;;;;;;;4.32;nan;101727.84;5029522;28;20046;-73
2022/03/28 06:45:15;;;;;;;57.60;23.75;;;;;;;4.45;nan;101728.28;5022385;28;20045;-70
2022/03/28 06:47:42;;;;;;;55.72;24.15;;;;;;;4.44;nan;101713.59;5032615;28;20037;-69
2022/03/28 06:50:08;;;;;;;52.67;23.65;;;;;;;4.86;nan;101731.19;5031978;28;20038;-69
2022/03/28 06:52:35;;;;;;;55.60;23.63;;;;;;;4.92;nan;101721.91;5027616;28;20388;-74
2022/03/28 06:55:01;;;;;;;54.92;23.33;;;;;;;5.13;nan;101726.75;5034492;28;20428;-70
2022/03/28 06:57:27;;;;;;;57.58;23.00;;;;;;;5.20;nan;101740.81;5031598;28;20044;-71
2022/03/28 06:59:55;;;;;;;52.60;23.50;;;;;;;5.29;nan;101729.44;5026622;28;20396;-70
2022/03/28 07:02:20;;;;;;;62.28;23.33;;;;;;;5.32;nan;101717.84;5024520;28;20049;-71
2022/03/28 07:04:46;;;;;;;53.45;22.83;;;;;;;5.53;nan;101730.47;5029456;28;20446;-70
2022/03/28 07:07:11;;;;;;;57.53;23.88;;;;;;;5.59;nan;101724.63;5026759;28;20120;-70
2022/03/28 07:09:37;;;;;;;61.30;23.35;;;;;;;5.73;nan;101733.66;5020157;28;20392;-71
2022/03/28 07:12:05;;;;;;;64.53;23.95;;;;;;;5.97;nan;101736.31;5026504;28;20037;-70
2022/03/28 07:14:32;;;;;;;52.35;23.40;;;;;;;5.99;nan;101720.50;5026318;28;20033;-70
2022/03/28 07:16:58;;;;;;;55.70;21.38;;;;;;;6.17;nan;101728.97;5026090;28;20045;-70
2022/03/28 07:19:24;;;;;;;48.70;21.13;;;;;;;6.25;nan;101725.56;5029721;28;20033;-70
2022/03/28 07:21:49;;;;;;;47.60;19.83;;;;;;;6.36;nan;101724.41;5028677;28;20069;-71
2022/03/28 07:24:17;;;;;;;39.65;17.50;;;;;;;6.46;nan;101721.63;5029830;28;20383;-71
2022/03/28 07:26:45;;;;;;;39.65;17.63;;;;;;;6.59;nan;101716.72;5013492;28;20452;-70
2022/03/28 07:29:11;;;;;;;33.90;15.02;;;;;;;6.75;nan;101724.56;5029635;28;20091;-72
2022/03/28 07:31:39;;;;;;;30.05;12.68;;;;;;;6.95;nan;101724.16;5018591;28;20038;-71
2022/03/28 07:36:51;;;;;;;32.83;13.90;;;;;;;7.20;nan;101714.41;5023593;28;20037;-70
2022/03/28 07:39:19;;;;;;;29.38;12.70;;;;;;;7.39;nan;101721.84;5029777;28;20025;-71
2022/03/28 07:41:45;;;;;;;27.65;12.85;;;;;;;7.46;nan;101720.19;5027679;28;20046;-71
2022/03/28 07:44:10;;;;;;;26.67;12.85;;;;;;;7.60;nan;101715.22;5029230;28;20092;-71
2022/03/28 07:46:36;;;;;;;29.05;11.48;;;;;;;7.76;nan;101722.97;5026788;28;20476;-73
2022/03/28 07:49:01;;;;;;;24.33;11.38;;;;;;;7.92;nan;101726.47;5025986;28;20041;-74
2022/03/28 07:51:26;;;;;;;22.10;11.05;;;;;;;8.01;nan;101712.31;5027803;28;20574;-76
2022/03/28 07:53:54;;;;;;;21.60;9.63;;;;;;;8.19;nan;101718.09;5022442;28;20053;-75
2022/03/28 07:56:19;;;;;;;20.05;10.50;;;;;;;8.35;nan;101716.31;5027351;28;20064;-74
2022/03/28 07:58:45;;;;;;;19.20;9.80;;;;;;;8.43;nan;101709.22;5028495;28;20491;-73
2022/03/28 08:01:11;;;;;;;22.50;10.07;;;;;;;8.47;nan;101689.47;5030134;28;20026;-74
2022/03/28 08:03:36;;;;;;;26.08;9.80;;;;;;;8.65;nan;101697.03;5027751;28;20045;-75
2022/03/28 08:06:02;;;;;;;23.25;9.93;;;;;;;8.78;nan;101692.94;5031222;28;20061;-75
2022/03/28 08:08:28;;;;;;;23.15;9.55;;;;;;;8.97;nan;101700.28;5013547;28;20037;-75
2022/03/28 08:10:54;;;;;;;22.00;9.55;;;;;;;9.01;nan;101688.41;5001564;28;20033;-74
2022/03/28 08:13:19;;;;;;;25.27;9.20;;;;;;;9.24;nan;101703.25;5025789;28;20036;-74
2022/03/28 08:15:45;;;;;;;24.90;8.90;;;;;;;9.40;nan;101704.84;5012735;28;20041;-74
2022/03/28 08:18:10;;;;;;;24.08;9.05;;;;;;;9.55;nan;101690.69;5024242;28;20399;-74
2022/03/28 08:20:35;;;;;;;20.83;9.15;;;;;;;9.64;nan;101669.50;5012504;28;20033;-74
2022/03/28 08:23:02;;;;;;;15.80;8.30;;;;;;;9.80;nan;101682.44;5025786;28;20029;-75
2022/03/28 08:25:27;;;;;;;23.52;9.85;;;;;;;10.02;nan;101691.94;5021820;28;20183;-75
2022/03/28 08:27:53;;;;;;;23.85;9.60;;;;;;;10.15;nan;101679.88;5030230;28;20087;-73
2022/03/28 08:30:18;;;;;;;21.00;9.02;;;;;;;10.35;nan;101680.88;5037342;28;20059;-74
2022/03/28 08:32:46;;;;;;;29.70;10.10;;;;;;;10.58;nan;101688.56;5012109;28;20034;-71
2022/03/28 08:35:12;;;;;;;17.35;9.38;;;;;;;10.68;nan;101675.03;5002459;28;20621;-71
2022/03/28 08:37:38;;;;;;;19.75;9.88;;;;;;;10.89;nan;101676.75;5014749;28;20038;-71
2022/03/28 08:40:05;;;;;;;24.23;10.02;;;;;;;11.06;nan;101683.34;5021318;28;20111;-71
2022/03/28 08:42:30;;;;;;;21.23;9.55;;;;;;;11.17;nan;101679.31;5028226;28;20037;-70
2022/03/28 08:44:55;;;;;;;22.35;10.05;;;;;;;11.16;nan;101653.16;5017560;28;20034;-69
2022/03/28 08:47:24;;;;;;;30.08;9.98;;;;;;;11.43;nan;101678.56;5030604;28;20034;-70
2022/03/28 08:49:51;;;;;;;19.38;10.00;;;;;;;11.51;nan;101674.94;5023412;28;20037;-70
2022/03/28 08:52:17;;;;;;;21.13;9.45;;;;;;;11.64;nan;101669.69;5016026;28;20762;-69
2022/03/28 08:54:44;;;;;;;24.65;10.05;;;;;;;11.75;nan;101668.28;5029774;28;20040;-69
2022/03/28 08:57:12;;;;;;;27.58;10.07;;;;;;;11.88;nan;101663.06;5012024;28;20037;-69
2022/03/28 08:59:37;;;;;;;26.33;10.50;;;;;;;11.96;nan;101655.97;5025905;28;20446;-69
2022/03/28 09:02:03;;;;;;;25.40;10.30;;;;;;;12.03;nan;101651.50;5010662;28;20045;-69
2022/03/28 09:04:29;;;;;;;22.23;10.23;;;;;;;12.21;nan;101653.50;5028957;28;20037;-70
2022/03/28 09:06:57;;;;;;;31.45;10.48;;;;;;;12.31;nan;101648.63;5030333;28;20036;-69
2022/03/28 09:09:27;;;;;;;20.85;10.55;;;;;;;12.48;nan;101656.94;5027839;28;20048;-68
2022/03/28 09:12:14;;;;;;;22.65;10.93;;;;;;;12.56;nan;101651.41;5030238;28;20144;-75
2022/03/28 09:14:40;;;;;;;20.80;10.50;;;;;;;12.69;nan;101650.56;5019334;28;20056;-75
2022/03/28 09:17:15;;;;;;;21.98;9.95;;;;;;;12.80;nan;101651.75;5021545;28;20033;-74
2022/03/28 09:19:49;;;;;;;20.83;9.45;;;;;;;12.92;nan;101648.25;5024581;28;20037;-70
2022/03/28 09:22:17;;;;;;;24.77;9.88;;;;;;;12.92;nan;101621.81;5024073;28;20038;-70
2022/03/28 09:24:44;;;;;;;19.48;9.57;;;;;;;13.07;nan;101626.84;5022761;28;20060;-73
2022/03/28 09:27:16;;;;;;;21.00;10.43;;;;;;;13.14;nan;101618.84;5018099;28;20068;-71
2022/03/28 09:30:01;;;;;;;20.40;9.95;;;;;;;13.32;nan;101626.94;5022933;28;20578;-70
2022/03/28 09:32:30;;;;;;;18.50;10.07;;;;;;;13.38;nan;101618.16;5027765;28;20052;-72
2022/03/28 09:35:10;;;;;;;19.27;10.38;;;;;;;13.57;nan;101624.31;5026049;28;20033;-70
2022/03/28 09:37:48;;;;;;;22.38;10.50;;;;;;;13.74;nan;101621.13;5030265;28;20040;-71
2022/03/28 09:40:24;;;;;;;20.33;10.65;;;;;;;13.88;nan;101608.59;5027440;28;20041;-71
2022/03/28 09:42:50;;;;;;;37.80;10.52;;;;;;;13.94;nan;101607.75;5018583;28;20557;-70
2022/03/28 09:45:27;;;;;;;25.77;9.73;;;;;;;13.92;nan;101586.78;5028921;28;20034;-72
2022/03/28 09:48:14;;;;;;;21.67;9.75;;;;;;;14.16;nan;101597.56;5023712;28;20037;-69
2022/03/28 09:50:46;;;;;;;18.70;9.50;;;;;;;14.25;nan;101591.75;5023898;28;20034;-71
2022/03/28 09:53:25;;;;;;;28.42;10.35;;;;;;;14.28;nan;101579.91;5026050;28;20040;-70
2022/03/28 09:56:02;;;;;;;28.07;9.13;;;;;;;14.53;nan;101581.66;5032481;28;20033;-70
2022/03/28 09:58:37;;;;;;;25.30;10.07;;;;;;;14.58;nan;101576.53;5028912;28;20052;-69
2022/03/28 10:01:29;;;;;;;21.77;9.75;;;;;;;14.72;nan;101585.13;5042778;28;20072;-70
2022/03/28 10:04:03;;;;;;;19.50;9.18;;;;;;;14.77;nan;101564.06;5020755;28;20103;-72
2022/03/28 10:06:29;;;;;;;24.40;10.20;;;;;;;14.93;nan;101578.53;5032785;28;20053;-71
2022/03/28 10:08:55;;;;;;;28.27;10.30;;;;;;;15.06;nan;101575.69;5020513;28;20106;-69
2022/03/28 10:11:21;;;;;;;22.50;9.65;;;;;;;15.13;nan;101565.00;5033064;28;20364;-70
2022/03/28 10:13:47;;;;;;;26.20;10.05;;;;;;;15.20;nan;101547.13;5029753;28;20044;-70
2022/03/28 10:16:13;;;;;;;30.05;10.75;;;;;;;15.34;nan;101558.38;5031842;28;20072;-71
2022/03/28 10:18:41;;;;;;;19.77;9.15;;;;;;;15.46;nan;101549.38;5018745;28;20061;-71
2022/03/28 10:21:31;;;;;;;17.80;9.33;;;;;;;15.57;nan;101545.13;5032820;28;20092;-73
2022/03/28 10:24:22;;;;;;;18.58;9.05;;;;;;;15.67;nan;101536.59;5027831;28;20361;-70
2022/03/28 10:26:52;;;;;;;20.80;9.20;;;;;;;15.66;nan;101521.72;5027833;28;20029;-70
2022/03/28 10:29:21;;;;;;;24.85;10.23;;;;;;;15.79;nan;101528.66;5018321;28;20133;-71
2022/03/28 10:31:55;;;;;;;19.55;10.05;;;;;;;15.82;nan;101515.72;5020654;28;20040;-71
2022/03/28 10:34:46;;;;;;;22.25;9.35;;;;;;;16.01;nan;101520.88;5017903;28;20044;-71
2022/03/28 10:37:31;;;;;;;20.85;9.55;;;;;;;15.98;nan;101508.09;5030792;28;20029;-72
2022/03/28 10:40:21;;;;;;;19.30;8.95;;;;;;;16.12;nan;101514.75;5031712;28;20088;-72
2022/03/28 10:42:52;;;;;;;16.95;9.75;;;;;;;16.03;nan;101484.28;5015263;28;20037;-70
2022/03/28 10:45:19;;;;;;;22.67;9.93;;;;;;;16.27;nan;101512.41;5020088;28;20048;-71
2022/03/28 10:47:49;;;;;;;19.48;10.43;;;;;;;16.31;nan;101502.13;5024312;28;20048;-69
2022/03/28 10:50:19;;;;;;;21.63;9.65;;;;;;;16.30;nan;101490.66;5027834;28;20029;-70
2022/03/28 10:53:14;;;;;;;16.33;9.23;;;;;;;16.50;nan;101486.78;5029332;28;20068;-70
2022/03/28 10:55:49;;;;;;;19.33;9.40;;;;;;;16.49;nan;101493.13;5017450;28;20045;-70
2022/03/28 10:58:17;;;;;;;20.70;9.65;;;;;;;16.52;nan;101484.69;5029133;28;20657;-70
2022/03/28 11:01:11;;;;;;;20.35;9.73;;;;;;;16.56;nan;101472.53;5028215;28;20033;-70
2022/03/28 11:03:42;;;;;;;18.35;9.30;;;;;;;16.72;nan;101465.66;5014039;28;20136;-70
2022/03/28 11:06:08;;;;;;;18.27;8.60;;;;;;;16.67;nan;101438.97;5020698;28;20033;-69
2022/03/28 11:08:38;;;;;;;17.33;9.07;;;;;;;16.70;nan;101447.25;5013475;28;20096;-70
2022/03/28 11:11:18;;;;;;;17.92;9.30;;;;;;;16.87;nan;101457.16;5029807;28;20498;-70
2022/03/28 11:14:04;;;;;;;16.52;8.20;;;;;;;16.94;nan;101449.81;5017034;28;20045;-70
2022/03/28 11:16:43;;;;;;;23.73;9.30;;;;;;;16.97;nan;101447.47;5011287;28;20034;-70
2022/03/28 11:19:29;;;;;;;20.90;9.15;;;;;;;17.08;nan;101445.78;5021216;28;20042;-70
2022/03/28 11:22:15;;;;;;;18.08;9.07;;;;;;;17.19;nan;101436.91;5030579;28;20038;-72
2022/03/28 11:24:54;;;;;;;21.02;8.57;;;;;;;17.23;nan;101413.25;5020525;28;20045;-71
2022/03/28 11:27:21;;;;;;;17.35;9.13;;;;;;;17.33;nan;101407.28;5018088;28;20156;-71
2022/03/28 11:29:47;;;;;;;24.85;9.45;;;;;;;17.52;nan;101416.59;5009188;28;20076;-71
2022/03/28 11:32:15;;;;;;;15.80;8.30;;;;;;;17.59;nan;101403.09;5020153;28;20111;-72
2022/03/28 11:34:49;;;;;;;14.43;8.83;;;;;;;17.52;nan;101384.63;5009507;28;20171;-73
2022/03/28 11:37:16;;;;;;;18.90;8.98;;;;;;;17.72;nan;101407.25;4998245;28;20077;-72
2022/03/28 11:40:05;;;;;;;17.90;8.70;;;;;;;17.81;nan;101390.63;5011515;28;20037;-72
2022/03/28 11:42:32;;;;;;;15.85;9.15;;;;;;;17.88;nan;101382.41;5028394;28;20048;-72